createdAt,value
2023-05-06T00:00:10.095Z,1015.71
2023-05-06T00:00:48.875Z,1015.71
2023-05-06T00:01:10.207Z,1015.81
2023-05-06T00:01:41.881Z,1015.81
2023-05-06T00:02:12.255Z,1015.71
2023-05-06T00:02:43.874Z,1015.71
2023-05-06T00:03:14.851Z,1015.71
2023-05-06T00:03:47.279Z,1015.71
2023-05-06T00:04:16.204Z,1015.51
2023-05-06T00:04:47.925Z,1015.51
2023-05-06T00:05:18.673Z,1015.61
2023-05-06T00:05:50.646Z,1015.61
2023-05-06T00:06:20.192Z,1015.61
2023-05-06T00:06:51.865Z,1015.61
2023-05-06T00:07:22.098Z,1015.34
2023-05-06T00:07:53.888Z,1015.34
2023-05-06T00:08:24.254Z,1015.44
2023-05-06T00:08:56.788Z,1015.44
2023-05-06T00:09:26.444Z,1015.24
2023-05-06T00:09:58.162Z,1015.24
2023-05-06T00:10:28.622Z,1015.34
2023-05-06T00:10:59.853Z,1015.34
2023-05-06T00:11:30.180Z,1015.44
2023-05-06T00:12:01.898Z,1015.44
2023-05-06T00:12:32.225Z,1015.44
2023-05-06T00:13:03.921Z,1015.24
2023-05-06T00:13:34.142Z,1015.24
2023-05-06T00:14:06.858Z,1015.51
2023-05-06T00:14:36.113Z,1015.51
2023-05-06T00:15:09.858Z,1015.34
2023-05-06T00:15:38.205Z,1015.34
2023-05-06T00:16:09.870Z,1015.44
2023-05-06T00:16:40.879Z,1015.44
2023-05-06T00:17:11.981Z,1015.24
2023-05-06T00:17:42.146Z,1015.24
2023-05-06T00:18:13.816Z,1015.44
2023-05-06T00:18:44.133Z,1015.44
2023-05-06T00:19:16.980Z,1015.34
2023-05-06T00:19:46.382Z,1015.34
2023-05-06T00:20:18.286Z,1015.34
2023-05-06T00:20:48.227Z,1015.34
2023-05-06T00:21:19.788Z,1015.34
2023-05-06T00:21:50.065Z,1015.34
2023-05-06T00:22:21.799Z,1015.51
2023-05-06T00:22:52.054Z,1015.51
2023-05-06T00:23:24.080Z,1015.34
2023-05-06T00:23:54.065Z,1015.34
2023-05-06T00:24:26.770Z,1015.44
2023-05-06T00:24:56.047Z,1015.44
2023-05-06T00:25:28.298Z,1015.24
2023-05-06T00:25:58.077Z,1015.24
2023-05-06T00:26:29.753Z,1015.24
2023-05-06T00:27:00.173Z,1015.24
2023-05-06T00:27:31.809Z,1015.24
2023-05-06T00:28:02.178Z,1015.24
2023-05-06T00:28:33.804Z,1015.14
2023-05-06T00:29:04.128Z,1015.34
2023-05-06T00:29:37.687Z,1015.34
2023-05-06T00:30:08.504Z,1015.14
2023-05-06T00:30:37.354Z,1015.14
2023-05-06T00:31:08.794Z,1015.24
2023-05-06T00:31:39.131Z,1015.24
2023-05-06T00:32:10.898Z,1015.44
2023-05-06T00:32:41.579Z,1015.44
2023-05-06T00:33:12.893Z,1015.34
2023-05-06T00:33:43.097Z,1015.34
2023-05-06T00:34:14.869Z,1015.44
2023-05-06T00:34:46.077Z,1015.44
2023-05-06T00:35:16.588Z,1015.24
2023-05-06T00:35:47.770Z,1015.24
2023-05-06T00:36:18.066Z,1015.24
2023-05-06T00:36:50.041Z,1015.24
2023-05-06T00:37:20.143Z,1015.24
2023-05-06T00:37:51.850Z,1015.24
2023-05-06T00:38:22.120Z,1015.44
2023-05-06T00:38:53.819Z,1015.44
2023-05-06T00:39:24.154Z,1015.44
2023-05-06T00:39:56.811Z,1015.44
2023-05-06T00:40:29.882Z,1015.24
2023-05-06T00:40:57.854Z,1015.24
2023-05-06T00:41:28.146Z,1015.34
2023-05-06T00:41:59.794Z,1015.34
2023-05-06T00:42:30.141Z,1015.44
2023-05-06T00:43:01.848Z,1015.44
2023-05-06T00:43:32.532Z,1015.44
2023-05-06T00:44:03.936Z,1015.24
2023-05-06T00:44:34.155Z,1015.24
2023-05-06T00:45:08.194Z,1015.34
2023-05-06T00:45:36.230Z,1015.34
2023-05-06T00:46:08.433Z,1015.14
2023-05-06T00:46:38.115Z,1015.14
2023-05-06T00:47:09.799Z,1015.34
2023-05-06T00:47:40.160Z,1015.34
2023-05-06T00:48:11.819Z,1015.34
2023-05-06T00:48:42.108Z,1015.34
2023-05-06T00:49:13.790Z,1015.14
2023-05-06T00:49:44.052Z,1015.14
2023-05-06T00:50:17.247Z,1015.14
2023-05-06T00:50:46.354Z,1015.14
2023-05-06T00:51:17.775Z,1015.14
2023-05-06T00:51:48.034Z,1015.14
2023-05-06T00:52:19.744Z,1015.34
2023-05-06T00:52:50.085Z,1015.34
2023-05-06T00:53:21.899Z,1015.14
2023-05-06T00:53:52.038Z,1015.14
2023-05-06T00:54:23.789Z,1015.03
2023-05-06T00:54:54.062Z,1015.03
2023-05-06T00:55:27.694Z,1015.24
2023-05-06T00:55:56.048Z,1015.24
2023-05-06T00:56:27.985Z,1015.03
2023-05-06T00:56:58.530Z,1015.03
2023-05-06T00:57:29.794Z,1015.14
2023-05-06T00:58:00.176Z,1015.14
2023-05-06T00:58:31.839Z,1015.14
2023-05-06T00:59:02.094Z,1015.14
2023-05-06T00:59:34.798Z,1015.03
2023-05-06T01:00:05.184Z,1015.14
2023-05-06T01:00:38.576Z,1015.14
2023-05-06T01:01:06.761Z,1015.14
2023-05-06T01:01:37.278Z,1015.14
2023-05-06T01:02:08.798Z,1015.14
2023-05-06T01:02:47.078Z,1015.14
2023-05-06T01:03:10.931Z,1014.93
2023-05-06T01:03:41.620Z,1014.93
2023-05-06T01:04:12.894Z,1015.03
2023-05-06T01:04:43.538Z,1015.03
2023-05-06T01:05:15.514Z,1014.83
2023-05-06T01:05:46.074Z,1014.83
2023-05-06T01:06:16.877Z,1015.03
2023-05-06T01:06:47.102Z,1015.03
2023-05-06T01:07:18.794Z,1015.24
2023-05-06T01:07:49.070Z,1015.24
2023-05-06T01:08:20.876Z,1015.24
2023-05-06T01:08:51.078Z,1015.24
2023-05-06T01:09:22.779Z,1015.14
2023-05-06T01:09:53.057Z,1015.14
2023-05-06T01:10:25.645Z,1015.34
2023-05-06T01:10:56.137Z,1015.34
2023-05-06T01:11:27.263Z,1014.93
2023-05-06T01:11:57.145Z,1014.93
2023-05-06T01:12:28.767Z,1015.03
2023-05-06T01:12:59.127Z,1015.03
2023-05-06T01:13:30.829Z,1015.03
2023-05-06T01:14:01.292Z,1015.03
2023-05-06T01:14:32.761Z,1015.24
2023-05-06T01:15:04.059Z,1015.03
2023-05-06T01:15:35.044Z,1015.03
2023-05-06T01:16:06.046Z,1015.34
2023-05-06T01:16:37.751Z,1015.34
2023-05-06T01:17:07.964Z,1015.03
2023-05-06T01:17:38.813Z,1015.03
2023-05-06T01:18:09.204Z,1015.34
2023-05-06T01:18:40.786Z,1015.34
2023-05-06T01:19:11.061Z,1015.24
2023-05-06T01:19:42.780Z,1015.24
2023-05-06T01:20:13.555Z,1015.14
2023-05-06T01:20:45.825Z,1015.14
2023-05-06T01:21:16.114Z,1014.93
2023-05-06T01:21:47.076Z,1014.93
2023-05-06T01:22:17.024Z,1014.83
2023-05-06T01:22:48.863Z,1014.83
2023-05-06T01:23:19.078Z,1015.14
2023-05-06T01:23:51.121Z,1015.14
2023-05-06T01:24:21.092Z,1014.93
2023-05-06T01:24:52.743Z,1014.93
2023-05-06T01:25:23.533Z,1015.03
2023-05-06T01:25:54.805Z,1015.03
2023-05-06T01:26:26.578Z,1014.93
2023-05-06T01:26:56.949Z,1014.93
2023-05-06T01:27:27.041Z,1015.03
2023-05-06T01:27:58.955Z,1015.03
2023-05-06T01:28:29.109Z,1015.03
2023-05-06T01:29:00.769Z,1015.03
2023-05-06T01:29:31.078Z,1014.83
2023-05-06T01:30:03.605Z,1014.83
2023-05-06T01:30:33.631Z,1015.03
2023-05-06T01:31:04.962Z,1014.93
2023-05-06T01:31:36.174Z,1014.93
2023-05-06T01:32:07.070Z,1015.03
2023-05-06T01:32:37.250Z,1015.03
2023-05-06T01:33:08.759Z,1015.14
2023-05-06T01:33:39.042Z,1015.14
2023-05-06T01:34:10.763Z,1015.24
2023-05-06T01:34:41.221Z,1015.24
2023-05-06T01:35:13.239Z,1015.03
2023-05-06T01:35:43.044Z,1015.03
2023-05-06T01:36:14.767Z,1015.03
2023-05-06T01:36:46.073Z,1015.03
2023-05-06T01:37:17.234Z,1015.14
2023-05-06T01:37:47.180Z,1015.14
2023-05-06T01:38:18.848Z,1015.24
2023-05-06T01:38:49.050Z,1015.24
2023-05-06T01:39:20.762Z,1014.93
2023-05-06T01:39:51.032Z,1014.93
2023-05-06T01:40:23.234Z,1015.03
2023-05-06T01:40:53.020Z,1015.03
2023-05-06T01:41:24.729Z,1015.03
2023-05-06T01:41:56.050Z,1015.03
2023-05-06T01:42:27.234Z,1015.03
2023-05-06T01:42:57.087Z,1015.03
2023-05-06T01:43:28.728Z,1015.03
2023-05-06T01:43:59.138Z,1015.03
2023-05-06T01:44:30.802Z,1014.93
2023-05-06T01:45:02.868Z,1014.93
2023-05-06T01:45:32.834Z,1015.14
2023-05-06T01:46:03.235Z,1015.14
2023-05-06T01:46:34.835Z,1015.14
2023-05-06T01:47:06.116Z,1015.14
2023-05-06T01:47:36.806Z,1015.14
2023-05-06T01:48:07.540Z,1015.03
2023-05-06T01:48:38.848Z,1015.03
2023-05-06T01:49:09.052Z,1015.03
2023-05-06T01:49:40.799Z,1015.03
2023-05-06T01:50:11.534Z,1015.03
2023-05-06T01:50:43.241Z,1015.03
2023-05-06T01:51:13.129Z,1014.73
2023-05-06T01:51:44.767Z,1014.73
2023-05-06T01:52:16.075Z,1014.93
2023-05-06T01:52:47.090Z,1014.93
2023-05-06T01:53:17.072Z,1015.24
2023-05-06T01:53:48.759Z,1015.24
2023-05-06T01:54:19.056Z,1015.03
2023-05-06T01:54:50.976Z,1015.03
2023-05-06T01:55:21.531Z,1015.14
2023-05-06T01:55:52.750Z,1015.14
2023-05-06T01:56:23.180Z,1015.14
2023-05-06T01:56:54.739Z,1015.14
2023-05-06T01:57:26.212Z,1014.93
2023-05-06T01:57:56.785Z,1014.93
2023-05-06T01:58:27.038Z,1015.03
2023-05-06T01:58:59.539Z,1015.03
2023-05-06T01:59:29.654Z,1015.03
2023-05-06T02:00:04.166Z,1015.03
2023-05-06T02:00:31.637Z,1015.34
2023-05-06T02:01:05.466Z,1015.34
2023-05-06T02:01:33.510Z,1015.14
2023-05-06T02:02:04.963Z,1015.03
2023-05-06T02:02:36.300Z,1015.03
2023-05-06T02:03:07.161Z,1015.14
2023-05-06T02:03:37.250Z,1015.14
2023-05-06T02:04:09.648Z,1015.03
2023-05-06T02:04:39.058Z,1015.03
2023-05-06T02:05:12.114Z,1015.14
2023-05-06T02:05:41.434Z,1015.14
2023-05-06T02:06:12.782Z,1015.24
2023-05-06T02:06:43.127Z,1015.24
2023-05-06T02:07:14.806Z,1014.93
2023-05-06T02:07:46.051Z,1014.93
2023-05-06T02:08:16.783Z,1014.93
2023-05-06T02:08:47.048Z,1014.93
2023-05-06T02:09:18.737Z,1014.83
2023-05-06T02:09:49.016Z,1014.83
2023-05-06T02:10:21.290Z,1014.93
2023-05-06T02:10:51.020Z,1014.93
2023-05-06T02:11:22.749Z,1014.93
2023-05-06T02:11:53.144Z,1014.93
2023-05-06T02:12:24.761Z,1014.93
2023-05-06T02:12:56.075Z,1014.93
2023-05-06T02:13:27.105Z,1014.93
2023-05-06T02:13:57.196Z,1014.93
2023-05-06T02:14:28.763Z,1014.83
2023-05-06T02:14:59.379Z,1014.83
2023-05-06T02:15:31.603Z,1014.93
2023-05-06T02:16:01.260Z,1014.93
2023-05-06T02:16:32.877Z,1015.03
2023-05-06T02:17:03.441Z,1015.03
2023-05-06T02:17:35.390Z,1015.03
2023-05-06T02:18:06.061Z,1014.73
2023-05-06T02:18:36.839Z,1014.73
2023-05-06T02:19:07.118Z,1015.03
2023-05-06T02:19:38.830Z,1015.03
2023-05-06T02:20:09.487Z,1015.14
2023-05-06T02:20:40.785Z,1015.14
2023-05-06T02:21:11.202Z,1015.14
2023-05-06T02:21:42.824Z,1015.14
2023-05-06T02:22:13.080Z,1014.93
2023-05-06T02:22:44.777Z,1014.93
2023-05-06T02:23:16.039Z,1015.03
2023-05-06T02:23:47.049Z,1015.03
2023-05-06T02:24:17.091Z,1014.73
2023-05-06T02:24:48.765Z,1014.73
2023-05-06T02:25:19.576Z,1014.93
2023-05-06T02:25:50.762Z,1014.93
2023-05-06T02:26:21.073Z,1015.14
2023-05-06T02:26:52.733Z,1015.14
2023-05-06T02:27:23.064Z,1014.93
2023-05-06T02:27:54.769Z,1014.93
2023-05-06T02:28:26.109Z,1014.93
2023-05-06T02:28:56.758Z,1014.93
2023-05-06T02:29:27.064Z,1014.93
2023-05-06T02:29:58.764Z,1014.93
2023-05-06T02:30:29.904Z,1014.73
2023-05-06T02:31:01.490Z,1014.73
2023-05-06T02:31:31.116Z,1014.93
2023-05-06T02:32:02.795Z,1014.93
2023-05-06T02:32:33.142Z,1014.73
2023-05-06T02:33:04.935Z,1014.73
2023-05-06T02:33:36.014Z,1014.73
2023-05-06T02:34:07.198Z,1014.73
2023-05-06T02:34:37.537Z,1014.73
2023-05-06T02:35:09.336Z,1014.93
2023-05-06T02:35:40.006Z,1014.93
2023-05-06T02:36:10.057Z,1014.83
2023-05-06T02:36:41.754Z,1014.83
2023-05-06T02:37:12.043Z,1014.83
2023-05-06T02:37:44.235Z,1014.83
2023-05-06T02:38:14.102Z,1014.83
2023-05-06T02:38:46.720Z,1014.83
2023-05-06T02:39:16.054Z,1014.83
2023-05-06T02:39:47.724Z,1014.83
2023-05-06T02:40:18.554Z,1014.73
2023-05-06T02:40:49.779Z,1014.73
2023-05-06T02:41:20.068Z,1014.93
2023-05-06T02:41:51.932Z,1014.93
2023-05-06T02:42:22.103Z,1014.93
2023-05-06T02:42:53.814Z,1014.93
2023-05-06T02:43:24.040Z,1014.83
2023-05-06T02:43:56.781Z,1014.83
2023-05-06T02:44:26.796Z,1014.83
2023-05-06T02:44:57.776Z,1014.83
2023-05-06T02:45:28.987Z,1014.83
2023-05-06T02:45:59.937Z,1014.83
2023-05-06T02:46:30.058Z,1014.73
2023-05-06T02:47:01.893Z,1014.73
2023-05-06T02:47:32.149Z,1014.83
2023-05-06T02:48:03.928Z,1014.83
2023-05-06T02:48:34.988Z,1014.83
2023-05-06T02:49:06.846Z,1014.73
2023-05-06T02:49:36.052Z,1014.73
2023-05-06T02:50:08.286Z,1015.03
2023-05-06T02:50:38.188Z,1015.03
2023-05-06T02:51:10.243Z,1014.93
2023-05-06T02:51:40.079Z,1014.93
2023-05-06T02:52:12.025Z,1014.73
2023-05-06T02:52:42.280Z,1014.73
2023-05-06T02:53:13.744Z,1014.63
2023-05-06T02:53:44.060Z,1014.63
2023-05-06T02:54:16.752Z,1014.83
2023-05-06T02:54:46.343Z,1014.83
2023-05-06T02:55:18.360Z,1014.83
2023-05-06T02:55:48.049Z,1014.83
2023-05-06T02:56:19.738Z,1014.83
2023-05-06T02:56:50.079Z,1014.83
2023-05-06T02:57:21.751Z,1014.83
2023-05-06T02:57:52.173Z,1014.83
2023-05-06T02:58:23.761Z,1014.63
2023-05-06T02:58:54.027Z,1014.63
2023-05-06T02:59:26.715Z,1014.63
2023-05-06T02:59:56.041Z,1014.63
2023-05-06T03:00:30.556Z,1014.83
2023-05-06T03:00:58.180Z,1014.83
2023-05-06T03:01:29.908Z,1014.83
2023-05-06T03:02:00.439Z,1014.83
2023-05-06T03:02:31.908Z,1014.93
2023-05-06T03:03:02.263Z,1014.93
2023-05-06T03:03:33.964Z,1014.83
2023-05-06T03:04:04.196Z,1014.83
2023-05-06T03:04:38.488Z,1014.83
2023-05-06T03:05:06.890Z,1014.73
2023-05-06T03:05:37.114Z,1014.73
2023-05-06T03:06:08.839Z,1014.53
2023-05-06T03:06:39.176Z,1014.53
2023-05-06T03:07:10.841Z,1014.63
2023-05-06T03:07:41.205Z,1014.63
2023-05-06T03:08:13.075Z,1014.63
2023-05-06T03:08:43.447Z,1014.63
2023-05-06T03:09:14.866Z,1014.73
2023-05-06T03:09:46.417Z,1014.73
2023-05-06T03:10:17.385Z,1014.83
2023-05-06T03:10:47.069Z,1014.83
2023-05-06T03:11:19.328Z,1014.83
2023-05-06T03:11:49.030Z,1014.83
2023-05-06T03:12:20.788Z,1015.14
2023-05-06T03:12:51.141Z,1015.14
2023-05-06T03:13:23.026Z,1014.73
2023-05-06T03:13:53.091Z,1014.73
2023-05-06T03:14:24.754Z,1014.73
2023-05-06T03:14:56.091Z,1014.73
2023-05-06T03:15:27.835Z,1014.83
2023-05-06T03:15:57.100Z,1014.83
2023-05-06T03:16:28.862Z,1014.73
2023-05-06T03:16:59.271Z,1014.73
2023-05-06T03:17:30.863Z,1014.83
2023-05-06T03:18:01.439Z,1014.83
2023-05-06T03:18:32.765Z,1014.73
2023-05-06T03:19:03.461Z,1015.03
2023-05-06T03:19:34.794Z,1015.03
2023-05-06T03:20:06.575Z,1014.83
2023-05-06T03:20:37.163Z,1014.83
2023-05-06T03:21:07.238Z,1014.73
2023-05-06T03:21:38.844Z,1014.73
2023-05-06T03:22:09.549Z,1014.73
2023-05-06T03:22:40.862Z,1014.73
2023-05-06T03:23:11.115Z,1014.73
2023-05-06T03:23:42.751Z,1014.73
2023-05-06T03:24:13.194Z,1014.63
2023-05-06T03:24:45.092Z,1014.63
2023-05-06T03:25:16.577Z,1014.63
2023-05-06T03:25:47.121Z,1014.63
2023-05-06T03:26:17.073Z,1014.83
2023-05-06T03:26:48.920Z,1014.83
2023-05-06T03:27:19.155Z,1014.73
2023-05-06T03:27:50.810Z,1014.73
2023-05-06T03:28:21.150Z,1014.83
2023-05-06T03:28:52.916Z,1014.83
2023-05-06T03:29:23.030Z,1014.83
2023-05-06T03:29:55.225Z,1014.83
2023-05-06T03:30:26.964Z,1014.73
2023-05-06T03:30:56.928Z,1014.73
2023-05-06T03:31:27.183Z,1014.83
2023-05-06T03:31:59.140Z,1014.83
2023-05-06T03:32:29.115Z,1014.73
2023-05-06T03:33:00.960Z,1014.73
2023-05-06T03:33:31.156Z,1014.93
2023-05-06T03:34:02.963Z,1014.93
2023-05-06T03:34:33.142Z,1014.93
2023-05-06T03:35:04.498Z,1014.73
2023-05-06T03:35:36.076Z,1014.73
2023-05-06T03:36:07.076Z,1015.03
2023-05-06T03:36:37.038Z,1015.03
2023-05-06T03:37:08.750Z,1014.73
2023-05-06T03:37:39.256Z,1014.73
2023-05-06T03:38:11.107Z,1014.73
2023-05-06T03:38:41.046Z,1014.73
2023-05-06T03:39:12.751Z,1014.83
2023-05-06T03:39:43.744Z,1014.83
2023-05-06T03:40:15.219Z,1014.73
2023-05-06T03:40:46.327Z,1014.73
2023-05-06T03:41:16.730Z,1015.03
2023-05-06T03:41:47.055Z,1015.03
2023-05-06T03:42:18.707Z,1014.83
2023-05-06T03:42:49.027Z,1014.83
2023-05-06T03:43:20.738Z,1014.83
2023-05-06T03:43:51.124Z,1014.83
2023-05-06T03:44:22.713Z,1014.73
2023-05-06T03:44:53.064Z,1014.73
2023-05-06T03:45:25.543Z,1014.63
2023-05-06T03:45:56.158Z,1014.63
2023-05-06T03:46:27.150Z,1014.83
2023-05-06T03:46:57.049Z,1014.83
2023-05-06T03:47:28.752Z,1014.93
2023-05-06T03:47:59.065Z,1014.93
2023-05-06T03:48:30.744Z,1014.73
2023-05-06T03:49:01.846Z,1014.73
2023-05-06T03:49:32.735Z,1014.73
2023-05-06T03:50:03.625Z,1014.83
2023-05-06T03:50:34.922Z,1014.83
2023-05-06T03:51:06.089Z,1014.73
2023-05-06T03:51:37.441Z,1014.73
2023-05-06T03:52:07.047Z,1015.03
2023-05-06T03:52:39.226Z,1015.03
2023-05-06T03:53:09.109Z,1014.73
2023-05-06T03:53:40.906Z,1014.73
2023-05-06T03:54:11.220Z,1014.83
2023-05-06T03:54:42.781Z,1014.83
2023-05-06T03:55:13.688Z,1014.73
2023-05-06T03:55:44.865Z,1014.73
2023-05-06T03:56:16.251Z,1014.83
2023-05-06T03:56:47.179Z,1014.83
2023-05-06T03:57:17.170Z,1014.83
2023-05-06T03:57:48.850Z,1014.83
2023-05-06T03:58:19.205Z,1014.83
2023-05-06T03:58:50.869Z,1014.83
2023-05-06T03:59:21.188Z,1015.03
2023-05-06T03:59:52.956Z,1015.03
2023-05-06T04:00:24.179Z,1014.73
2023-05-06T04:00:58.132Z,1014.73
2023-05-06T04:01:26.141Z,1014.73
2023-05-06T04:01:56.878Z,1014.73
2023-05-06T04:02:27.588Z,1015.03
2023-05-06T04:02:58.984Z,1015.03
2023-05-06T04:03:29.206Z,1014.93
2023-05-06T04:04:01.017Z,1014.93
2023-05-06T04:04:31.154Z,1014.73
2023-05-06T04:05:03.766Z,1014.73
2023-05-06T04:05:33.181Z,1014.83
2023-05-06T04:06:04.927Z,1014.93
2023-05-06T04:06:36.201Z,1014.93
2023-05-06T04:07:07.147Z,1014.93
2023-05-06T04:07:37.192Z,1014.93
2023-05-06T04:08:08.922Z,1014.93
2023-05-06T04:08:39.121Z,1014.93
2023-05-06T04:09:10.958Z,1015.03
2023-05-06T04:09:41.153Z,1015.03
2023-05-06T04:10:13.314Z,1014.93
2023-05-06T04:10:43.276Z,1014.93
2023-05-06T04:11:14.914Z,1015.03
2023-05-06T04:11:46.652Z,1015.03
2023-05-06T04:12:16.874Z,1015.03
2023-05-06T04:12:47.279Z,1015.03
2023-05-06T04:13:18.901Z,1015.03
2023-05-06T04:13:49.221Z,1015.03
2023-05-06T04:14:20.878Z,1014.93
2023-05-06T04:14:51.256Z,1014.93
2023-05-06T04:15:23.712Z,1014.93
2023-05-06T04:15:53.768Z,1014.93
2023-05-06T04:16:25.021Z,1014.93
2023-05-06T04:16:56.177Z,1014.93
2023-05-06T04:17:27.221Z,1015.03
2023-05-06T04:17:57.196Z,1015.03
2023-05-06T04:18:29.398Z,1015.03
2023-05-06T04:18:59.280Z,1015.03
2023-05-06T04:19:30.910Z,1014.93
2023-05-06T04:20:02.459Z,1014.93
2023-05-06T04:20:37.451Z,1015.24
2023-05-06T04:21:03.283Z,1015.03
2023-05-06T04:21:34.870Z,1015.03
2023-05-06T04:22:06.192Z,1014.93
2023-05-06T04:22:37.994Z,1014.93
2023-05-06T04:23:07.205Z,1015.14
2023-05-06T04:23:38.922Z,1015.14
2023-05-06T04:24:09.191Z,1015.14
2023-05-06T04:24:40.943Z,1015.14
2023-05-06T04:25:12.366Z,1015.03
2023-05-06T04:25:42.986Z,1015.03
2023-05-06T04:26:13.212Z,1015.14
2023-05-06T04:26:44.821Z,1015.14
2023-05-06T04:27:16.183Z,1015.14
2023-05-06T04:27:47.215Z,1015.14
2023-05-06T04:28:17.286Z,1015.24
2023-05-06T04:28:48.897Z,1015.24
2023-05-06T04:29:19.664Z,1014.93
2023-05-06T04:29:50.975Z,1014.93
2023-05-06T04:30:22.599Z,1015.14
2023-05-06T04:30:52.953Z,1015.14
2023-05-06T04:31:23.220Z,1015.03
2023-05-06T04:31:55.515Z,1015.03
2023-05-06T04:32:26.229Z,1015.14
2023-05-06T04:32:56.860Z,1015.14
2023-05-06T04:33:27.138Z,1015.14
2023-05-06T04:33:58.904Z,1015.14
2023-05-06T04:34:29.165Z,1014.93
2023-05-06T04:35:00.499Z,1014.93
2023-05-06T04:35:32.223Z,1015.24
2023-05-06T04:36:03.071Z,1015.24
2023-05-06T04:36:33.647Z,1015.03
2023-05-06T04:37:06.153Z,1015.03
2023-05-06T04:37:36.165Z,1015.03
2023-05-06T04:38:07.377Z,1015.14
2023-05-06T04:38:37.255Z,1015.14
2023-05-06T04:39:09.008Z,1015.24
2023-05-06T04:39:39.439Z,1015.24
2023-05-06T04:40:11.354Z,1015.14
2023-05-06T04:40:41.254Z,1015.14
2023-05-06T04:41:12.985Z,1014.93
2023-05-06T04:41:43.203Z,1014.93
2023-05-06T04:42:14.857Z,1015.03
2023-05-06T04:42:46.166Z,1015.03
2023-05-06T04:43:16.928Z,1014.83
2023-05-06T04:43:47.213Z,1014.83
2023-05-06T04:44:18.820Z,1015.03
2023-05-06T04:44:49.185Z,1015.03
2023-05-06T04:45:22.364Z,1015.03
2023-05-06T04:45:51.309Z,1015.03
2023-05-06T04:46:22.987Z,1015.03
2023-05-06T04:46:53.193Z,1015.03
2023-05-06T04:47:24.886Z,1015.03
2023-05-06T04:47:56.153Z,1015.03
2023-05-06T04:48:27.227Z,1015.03
2023-05-06T04:48:57.584Z,1015.03
2023-05-06T04:49:28.944Z,1014.83
2023-05-06T04:49:59.169Z,1014.83
2023-05-06T04:50:31.517Z,1014.93
2023-05-06T04:51:01.354Z,1014.93
2023-05-06T04:51:32.901Z,1015.03
2023-05-06T04:52:03.405Z,1015.14
2023-05-06T04:52:35.637Z,1015.14
2023-05-06T04:53:06.190Z,1014.83
2023-05-06T04:53:36.819Z,1014.83
2023-05-06T04:54:07.195Z,1015.14
2023-05-06T04:54:38.862Z,1015.14
2023-05-06T04:55:09.702Z,1014.93
2023-05-06T04:55:41.010Z,1014.93
2023-05-06T04:56:11.514Z,1014.83
2023-05-06T04:56:42.816Z,1014.83
2023-05-06T04:57:13.174Z,1014.93
2023-05-06T04:57:44.931Z,1014.93
2023-05-06T04:58:16.203Z,1015.03
2023-05-06T04:58:47.817Z,1015.03
2023-05-06T04:59:17.213Z,1015.14
2023-05-06T04:59:48.853Z,1015.14
2023-05-06T05:00:20.716Z,1015.03
2023-05-06T05:00:50.993Z,1015.03
2023-05-06T05:01:21.256Z,1015.14
2023-05-06T05:01:52.880Z,1015.14
2023-05-06T05:02:23.262Z,1015.24
2023-05-06T05:02:55.147Z,1015.24
2023-05-06T05:03:26.323Z,1015.14
2023-05-06T05:03:56.909Z,1015.14
2023-05-06T05:04:27.174Z,1015.14
2023-05-06T05:04:58.874Z,1015.14
2023-05-06T05:05:29.645Z,1015.24
2023-05-06T05:06:00.939Z,1015.24
2023-05-06T05:06:31.639Z,1015.03
2023-05-06T05:07:02.894Z,1015.03
2023-05-06T05:07:33.142Z,1015.14
2023-05-06T05:08:04.905Z,1015.14
2023-05-06T05:08:36.242Z,1015.14
2023-05-06T05:09:07.224Z,1015.24
2023-05-06T05:09:37.675Z,1015.24
2023-05-06T05:10:09.355Z,1015.14
2023-05-06T05:10:39.271Z,1015.14
2023-05-06T05:11:11.039Z,1015.24
2023-05-06T05:11:41.198Z,1015.24
2023-05-06T05:12:13.985Z,1014.93
2023-05-06T05:12:43.753Z,1014.93
2023-05-06T05:13:14.911Z,1015.03
2023-05-06T05:13:46.178Z,1015.03
2023-05-06T05:14:16.867Z,1014.93
2023-05-06T05:14:47.163Z,1014.93
2023-05-06T05:15:19.760Z,1015.34
2023-05-06T05:15:49.244Z,1015.34
2023-05-06T05:16:20.999Z,1015.14
2023-05-06T05:16:51.220Z,1015.14
2023-05-06T05:17:23.005Z,1015.14
2023-05-06T05:17:53.252Z,1015.14
2023-05-06T05:18:24.861Z,1015.24
2023-05-06T05:18:56.595Z,1015.24
2023-05-06T05:19:29.269Z,1015.24
2023-05-06T05:19:57.158Z,1015.24
2023-05-06T05:20:36.886Z,1015.24
2023-05-06T05:20:59.898Z,1015.24
2023-05-06T05:21:30.178Z,1015.14
2023-05-06T05:22:01.948Z,1015.14
2023-05-06T05:22:32.233Z,1015.14
2023-05-06T05:23:04.138Z,1015.34
2023-05-06T05:23:34.163Z,1015.34
2023-05-06T05:24:06.864Z,1015.14
2023-05-06T05:24:36.220Z,1015.14
2023-05-06T05:25:08.868Z,1015.03
2023-05-06T05:25:38.300Z,1015.03
2023-05-06T05:26:09.820Z,1015.24
2023-05-06T05:26:40.193Z,1015.24
2023-05-06T05:27:12.189Z,1015.24
2023-05-06T05:27:42.190Z,1015.24
2023-05-06T05:28:13.867Z,1015.24
2023-05-06T05:28:44.239Z,1015.24
2023-05-06T05:29:16.886Z,1015.03
2023-05-06T05:29:46.965Z,1015.03
2023-05-06T05:30:18.914Z,1015.24
2023-05-06T05:30:48.272Z,1015.24
2023-05-06T05:31:19.959Z,1015.24
2023-05-06T05:31:50.228Z,1015.24
2023-05-06T05:32:22.422Z,1015.44
2023-05-06T05:32:52.380Z,1015.44
2023-05-06T05:33:24.045Z,1015.44
2023-05-06T05:33:54.221Z,1015.44
2023-05-06T05:34:26.865Z,1015.34
2023-05-06T05:34:56.201Z,1015.34
2023-05-06T05:35:27.804Z,1015.44
2023-05-06T05:35:58.952Z,1015.44
2023-05-06T05:36:29.755Z,1015.34
2023-05-06T05:37:00.909Z,1015.34
2023-05-06T05:37:31.160Z,1015.34
2023-05-06T05:38:02.918Z,1015.34
2023-05-06T05:38:33.301Z,1015.34
2023-05-06T05:39:05.391Z,1015.24
2023-05-06T05:39:36.221Z,1015.24
2023-05-06T05:40:07.816Z,1015.44
2023-05-06T05:40:37.859Z,1015.44
2023-05-06T05:41:08.882Z,1015.44
2023-05-06T05:41:39.136Z,1015.44
2023-05-06T05:42:11.093Z,1015.14
2023-05-06T05:42:41.626Z,1015.14
2023-05-06T05:43:13.107Z,1015.44
2023-05-06T05:43:43.171Z,1015.44
2023-05-06T05:44:14.854Z,1015.44
2023-05-06T05:44:46.245Z,1015.44
2023-05-06T05:45:17.873Z,1015.44
2023-05-06T05:45:47.225Z,1015.44
2023-05-06T05:46:19.015Z,1015.24
2023-05-06T05:46:49.210Z,1015.24
2023-05-06T05:47:20.876Z,1015.34
2023-05-06T05:47:51.216Z,1015.34
2023-05-06T05:48:22.925Z,1015.34
2023-05-06T05:48:53.192Z,1015.34
2023-05-06T05:49:24.889Z,1015.44
2023-05-06T05:49:56.142Z,1015.44
2023-05-06T05:50:27.676Z,1015.44
2023-05-06T05:50:57.158Z,1015.44
2023-05-06T05:51:28.891Z,1015.34
2023-05-06T05:51:59.466Z,1015.34
2023-05-06T05:52:30.892Z,1015.44
2023-05-06T05:53:01.347Z,1015.44
2023-05-06T05:53:32.875Z,1015.51
2023-05-06T05:54:03.230Z,1015.44
2023-05-06T05:54:35.189Z,1015.44
2023-05-06T05:55:07.505Z,1015.44
2023-05-06T05:55:38.091Z,1015.44
2023-05-06T05:56:07.105Z,1015.61
2023-05-06T05:56:39.216Z,1015.61
2023-05-06T05:57:09.136Z,1015.71
2023-05-06T05:57:40.853Z,1015.71
2023-05-06T05:58:11.144Z,1015.44
2023-05-06T05:58:42.879Z,1015.44
2023-05-06T05:59:13.131Z,1015.44
2023-05-06T05:59:44.829Z,1015.44
2023-05-06T06:00:17.447Z,1015.51
2023-05-06T06:00:47.427Z,1015.51
2023-05-06T06:01:17.233Z,1015.61
2023-05-06T06:01:48.945Z,1015.61
2023-05-06T06:02:19.159Z,1015.61
2023-05-06T06:02:50.851Z,1015.61
2023-05-06T06:03:21.733Z,1015.44
2023-05-06T06:03:53.056Z,1015.44
2023-05-06T06:04:23.187Z,1015.61
2023-05-06T06:04:56.198Z,1015.61
2023-05-06T06:05:26.680Z,1015.34
2023-05-06T06:05:56.905Z,1015.34
2023-05-06T06:06:27.156Z,1015.34
2023-05-06T06:06:58.880Z,1015.34
2023-05-06T06:07:29.150Z,1015.61
2023-05-06T06:08:03.525Z,1015.61
2023-05-06T06:08:31.173Z,1015.14
2023-05-06T06:09:02.885Z,1015.14
2023-05-06T06:09:33.216Z,1015.34
2023-05-06T06:10:06.078Z,1015.44
2023-05-06T06:10:36.233Z,1015.44
2023-05-06T06:11:07.207Z,1015.51
2023-05-06T06:11:37.179Z,1015.51
2023-05-06T06:12:08.992Z,1015.44
2023-05-06T06:12:39.202Z,1015.44
2023-05-06T06:13:10.857Z,1015.51
2023-05-06T06:13:41.224Z,1015.51
2023-05-06T06:14:12.874Z,1015.44
2023-05-06T06:14:43.142Z,1015.44